createdAt,value
2023-05-10T00:00:20.059Z,41.15
2023-05-10T00:01:20.081Z,41.07
2023-05-10T00:02:20.118Z,41.16
2023-05-10T00:03:20.205Z,41.14
2023-05-10T00:04:20.186Z,41.17
2023-05-10T00:05:20.171Z,41.11
2023-05-10T00:06:20.148Z,41.12
2023-05-10T00:07:20.149Z,41.04
2023-05-10T00:08:20.192Z,41.09
2023-05-10T00:09:20.214Z,41.15
2023-05-10T00:10:20.234Z,41.19
2023-05-10T00:11:22.270Z,41.19
2023-05-10T00:12:20.218Z,41.17
2023-05-10T00:13:20.242Z,41.25
2023-05-10T00:14:20.175Z,41.23
2023-05-10T00:15:20.186Z,41.28
2023-05-10T00:16:20.283Z,41.26
2023-05-10T00:17:20.179Z,41.37
2023-05-10T00:18:20.206Z,41.30
2023-05-10T00:19:20.148Z,41.23
2023-05-10T00:20:20.138Z,41.28
2023-05-10T00:21:20.136Z,41.27
2023-05-10T00:22:20.151Z,41.26
2023-05-10T00:23:20.126Z,41.26
2023-05-10T00:24:20.140Z,41.30
2023-05-10T00:25:20.132Z,41.30
2023-05-10T00:26:20.117Z,41.36
2023-05-10T00:27:20.130Z,41.41
2023-05-10T00:28:20.132Z,41.33
2023-05-10T00:29:20.096Z,41.42
2023-05-10T00:30:20.081Z,41.31
2023-05-10T00:31:20.105Z,41.36
2023-05-10T00:32:20.170Z,41.35
2023-05-10T00:33:20.089Z,41.37
2023-05-10T00:34:20.096Z,41.29
2023-05-10T00:35:20.072Z,41.37
2023-05-10T00:36:20.036Z,41.40
2023-05-10T00:37:20.040Z,41.33
2023-05-10T00:38:20.037Z,41.41
2023-05-10T00:39:20.021Z,41.38
2023-05-10T00:40:20.039Z,41.37
2023-05-10T00:41:20.058Z,41.40
2023-05-10T00:42:20.006Z,41.42
2023-05-10T00:43:19.996Z,41.40
2023-05-10T00:44:19.987Z,41.43
2023-05-10T00:45:19.979Z,41.41
2023-05-10T00:46:20.067Z,41.44
2023-05-10T00:47:19.991Z,41.41
2023-05-10T00:48:19.979Z,41.43
2023-05-10T00:49:19.959Z,41.37
2023-05-10T00:50:19.974Z,41.39
2023-05-10T00:51:19.965Z,41.40
2023-05-10T00:52:19.931Z,41.44
2023-05-10T00:53:19.954Z,41.44
2023-05-10T00:54:19.945Z,41.43
2023-05-10T00:55:19.923Z,41.43
2023-05-10T00:56:19.922Z,41.39
2023-05-10T00:57:19.917Z,41.36
2023-05-10T00:58:19.895Z,41.42
2023-05-10T00:59:19.923Z,41.35
2023-05-10T01:00:19.875Z,41.38
2023-05-10T01:01:19.921Z,41.39
2023-05-10T01:02:19.945Z,41.37
2023-05-10T01:03:20.100Z,41.40
2023-05-10T01:04:19.847Z,41.40
2023-05-10T01:05:19.887Z,41.39
2023-05-10T01:06:19.857Z,41.38
2023-05-10T01:07:19.835Z,41.35
2023-05-10T01:08:19.851Z,41.35
2023-05-10T01:09:19.836Z,41.43
2023-05-10T01:10:19.830Z,41.37
2023-05-10T01:11:19.841Z,41.41
2023-05-10T01:12:19.908Z,41.32
2023-05-10T01:13:19.885Z,41.34
2023-05-10T01:14:19.781Z,41.30
2023-05-10T01:15:19.816Z,41.30
2023-05-10T01:16:19.804Z,41.33
2023-05-10T01:17:19.807Z,41.42
2023-05-10T01:18:19.797Z,41.41
2023-05-10T01:19:19.768Z,41.37
2023-05-10T01:20:19.886Z,41.40
2023-05-10T01:21:19.824Z,41.43
2023-05-10T01:22:19.755Z,41.43
2023-05-10T01:23:19.760Z,41.50
2023-05-10T01:24:19.772Z,41.50
2023-05-10T01:25:19.730Z,41.48
2023-05-10T01:26:19.705Z,41.47
2023-05-10T01:27:19.718Z,41.49
2023-05-10T01:28:19.696Z,41.48
2023-05-10T01:29:19.731Z,41.49
2023-05-10T01:31:19.758Z,41.44
2023-05-10T01:32:19.663Z,41.43
2023-05-10T01:33:19.684Z,41.37
2023-05-10T01:34:19.679Z,41.34
2023-05-10T01:35:19.663Z,41.36
2023-05-10T01:36:19.651Z,41.38
2023-05-10T01:37:19.631Z,41.34
2023-05-10T01:38:19.623Z,41.33
2023-05-10T01:39:19.643Z,41.35
2023-05-10T01:40:19.628Z,41.36
2023-05-10T01:41:19.700Z,41.42
2023-05-10T01:42:19.626Z,41.38
2023-05-10T01:43:19.612Z,41.36
2023-05-10T01:44:19.585Z,41.43
2023-05-10T01:45:19.597Z,41.37
2023-05-10T01:46:19.658Z,41.37
2023-05-10T01:47:19.578Z,41.42
2023-05-10T01:48:19.588Z,41.37
2023-05-10T01:49:19.569Z,41.35
2023-05-10T01:50:19.669Z,41.37
2023-05-10T01:51:19.560Z,41.37
2023-05-10T01:52:19.527Z,41.36
2023-05-10T01:53:19.519Z,41.38
2023-05-10T01:54:19.549Z,41.34
2023-05-10T01:55:19.576Z,41.32
2023-05-10T01:56:19.526Z,41.33
2023-05-10T01:57:19.497Z,41.28
2023-05-10T01:58:19.521Z,41.32
2023-05-10T01:59:19.536Z,41.29
2023-05-10T02:00:19.490Z,41.31
2023-05-10T02:01:19.547Z,41.29
2023-05-10T02:02:19.483Z,41.32
2023-05-10T02:03:19.516Z,41.34
2023-05-10T02:04:19.492Z,41.30
2023-05-10T02:05:19.445Z,41.26
2023-05-10T02:06:19.449Z,41.29
2023-05-10T02:07:19.459Z,41.28
2023-05-10T02:08:19.431Z,41.27
2023-05-10T02:09:19.419Z,41.31
2023-05-10T02:10:19.524Z,41.32
2023-05-10T02:11:19.407Z,41.30
2023-05-10T02:12:19.400Z,41.33
2023-05-10T02:13:19.456Z,41.34
2023-05-10T02:14:19.393Z,41.37
2023-05-10T02:15:19.410Z,41.35
2023-05-10T02:16:19.515Z,41.31
2023-05-10T02:17:19.368Z,41.26
2023-05-10T02:18:19.400Z,41.23
2023-05-10T02:19:19.353Z,41.21
2023-05-10T02:20:19.556Z,41.25
2023-05-10T02:21:19.336Z,41.19
2023-05-10T02:22:19.401Z,41.25
2023-05-10T02:23:19.318Z,41.14
2023-05-10T02:24:19.335Z,41.21
2023-05-10T02:25:19.322Z,41.20
2023-05-10T02:26:19.328Z,41.22
2023-05-10T02:27:19.307Z,41.21
2023-05-10T02:28:19.312Z,41.23
2023-05-10T02:29:19.306Z,41.20
2023-05-10T02:30:19.280Z,41.20
2023-05-10T02:31:19.358Z,41.21
2023-05-10T02:32:19.281Z,41.21
2023-05-10T02:33:19.256Z,41.19
2023-05-10T02:34:19.345Z,41.22
2023-05-10T02:35:19.248Z,41.19
2023-05-10T02:36:19.280Z,41.25
2023-05-10T02:37:19.269Z,41.22
2023-05-10T02:38:19.232Z,41.22
2023-05-10T02:39:19.246Z,41.16
2023-05-10T02:40:19.385Z,41.18
2023-05-10T02:41:19.221Z,41.19
2023-05-10T02:42:19.219Z,41.17
2023-05-10T02:43:19.212Z,41.09
2023-05-10T02:44:19.199Z,41.08
2023-05-10T02:45:19.184Z,41.04
2023-05-10T02:46:19.218Z,41.01
2023-05-10T02:47:19.165Z,40.98
2023-05-10T02:48:19.174Z,41.02
2023-05-10T02:49:19.182Z,40.99
2023-05-10T02:50:19.226Z,41.04
2023-05-10T02:51:19.215Z,41.03
2023-05-10T02:52:19.161Z,41.07
2023-05-10T02:53:19.141Z,41.10
2023-05-10T02:54:19.163Z,41.11
2023-05-10T02:55:19.156Z,41.13
2023-05-10T02:56:19.119Z,41.12
2023-05-10T02:57:19.156Z,41.07
2023-05-10T02:58:19.139Z,41.13
2023-05-10T02:59:19.124Z,41.11
2023-05-10T03:00:19.138Z,41.05
2023-05-10T03:01:19.149Z,41.08
2023-05-10T03:02:19.139Z,41.15
2023-05-10T03:03:19.140Z,41.15
2023-05-10T03:04:19.214Z,41.16
2023-05-10T03:05:19.132Z,41.17
2023-05-10T03:06:19.142Z,41.13
2023-05-10T03:07:19.152Z,41.16
2023-05-10T03:08:19.184Z,41.15
2023-05-10T03:09:19.166Z,41.10
2023-05-10T03:10:19.364Z,41.08
2023-05-10T03:11:19.149Z,41.04
2023-05-10T03:12:19.159Z,41.02
2023-05-10T03:13:19.236Z,41.00
2023-05-10T03:14:19.191Z,40.98
2023-05-10T03:15:19.195Z,40.98
2023-05-10T03:16:19.230Z,40.98
2023-05-10T03:17:19.184Z,40.97
2023-05-10T03:18:19.202Z,40.95
2023-05-10T03:19:19.222Z,40.94
2023-05-10T03:20:19.218Z,40.94
2023-05-10T03:21:19.219Z,40.95
2023-05-10T03:22:19.224Z,40.94
2023-05-10T03:23:19.235Z,40.97
2023-05-10T03:24:19.215Z,40.92
2023-05-10T03:25:19.216Z,40.94
2023-05-10T03:26:19.276Z,40.90
2023-05-10T03:27:19.221Z,40.91
2023-05-10T03:28:19.282Z,40.86
2023-05-10T03:29:19.281Z,40.89
2023-05-10T03:30:19.418Z,40.87
2023-05-10T03:31:19.266Z,40.91
2023-05-10T03:32:19.222Z,40.90
2023-05-10T03:33:19.226Z,40.92
2023-05-10T03:34:19.232Z,40.91
2023-05-10T03:35:19.227Z,40.95
2023-05-10T03:36:19.274Z,40.95
2023-05-10T03:37:19.279Z,40.98
2023-05-10T03:38:19.317Z,40.95
2023-05-10T03:39:19.346Z,40.96
2023-05-10T03:40:19.539Z,40.91
2023-05-10T03:41:19.362Z,40.95
2023-05-10T03:42:19.419Z,40.90
2023-05-10T03:43:19.432Z,40.91
2023-05-10T03:44:19.428Z,40.90
2023-05-10T03:45:19.490Z,40.89
2023-05-10T03:46:19.443Z,40.87
2023-05-10T03:47:19.450Z,40.86
2023-05-10T03:48:19.437Z,40.80
2023-05-10T03:49:19.452Z,40.83
2023-05-10T03:50:19.603Z,40.81
2023-05-10T03:51:19.484Z,40.76
2023-05-10T03:52:19.529Z,40.76
2023-05-10T03:53:19.533Z,40.73
2023-05-10T03:54:19.543Z,40.71
2023-05-10T03:55:19.540Z,40.72
2023-05-10T03:56:19.539Z,40.70
2023-05-10T03:57:19.523Z,40.72
2023-05-10T03:58:19.539Z,40.73
2023-05-10T03:59:19.546Z,40.74
2023-05-10T04:00:19.714Z,40.70
2023-05-10T04:01:19.547Z,40.73
2023-05-10T04:02:19.589Z,40.76
2023-05-10T04:03:19.704Z,40.70
2023-05-10T04:04:19.959Z,40.64
2023-05-10T04:05:19.660Z,40.67
2023-05-10T04:06:19.711Z,40.69
2023-05-10T04:07:19.658Z,40.69
2023-05-10T04:08:19.668Z,40.64
2023-05-10T04:09:19.723Z,40.64
2023-05-10T04:10:19.766Z,40.61
2023-05-10T04:11:19.693Z,40.62
2023-05-10T04:12:19.692Z,40.61
2023-05-10T04:13:19.742Z,40.56
2023-05-10T04:14:19.701Z,40.58
2023-05-10T04:15:19.717Z,40.56
2023-05-10T04:16:19.782Z,40.53
2023-05-10T04:17:19.751Z,40.48
2023-05-10T04:18:19.704Z,40.47
2023-05-10T04:19:19.822Z,40.49
2023-05-10T04:20:19.767Z,40.53
2023-05-10T04:21:19.694Z,40.51
2023-05-10T04:22:19.722Z,40.53
2023-05-10T04:23:19.699Z,40.52
2023-05-10T04:24:19.705Z,40.53
2023-05-10T04:25:19.702Z,40.48
2023-05-10T04:26:19.693Z,40.53
2023-05-10T04:27:19.705Z,40.45
2023-05-10T04:28:19.744Z,40.45
2023-05-10T04:29:19.695Z,40.43
2023-05-10T04:30:19.692Z,40.45
2023-05-10T04:31:19.828Z,40.42
2023-05-10T04:32:19.700Z,40.37
2023-05-10T04:33:19.696Z,40.39
2023-05-10T04:34:20.128Z,40.36
2023-05-10T04:35:19.721Z,40.34
2023-05-10T04:36:19.717Z,40.33
2023-05-10T04:37:19.714Z,40.37
2023-05-10T04:38:19.722Z,40.41
2023-05-10T04:39:19.728Z,40.35
2023-05-10T04:40:19.745Z,40.37
2023-05-10T04:41:19.741Z,40.37
2023-05-10T04:42:19.749Z,40.44
2023-05-10T04:43:19.764Z,40.38
2023-05-10T04:44:19.783Z,40.40
2023-05-10T04:45:19.769Z,40.39
2023-05-10T04:46:19.817Z,40.44
2023-05-10T04:47:19.777Z,40.46
2023-05-10T04:48:19.751Z,40.49
2023-05-10T04:49:19.754Z,40.46
2023-05-10T04:50:19.787Z,40.49
2023-05-10T04:51:19.797Z,40.49
2023-05-10T04:52:19.794Z,40.55
2023-05-10T04:53:19.799Z,40.55
2023-05-10T04:54:19.795Z,40.54
2023-05-10T04:55:19.782Z,40.52
2023-05-10T04:56:19.801Z,40.56
2023-05-10T04:57:19.824Z,40.52
2023-05-10T04:58:19.818Z,40.51
2023-05-10T04:59:19.836Z,40.44
2023-05-10T05:00:19.830Z,40.48
2023-05-10T05:01:19.854Z,40.48
2023-05-10T05:02:19.852Z,40.47
2023-05-10T05:03:19.978Z,40.44
2023-05-10T05:04:19.836Z,40.45
2023-05-10T05:05:19.858Z,40.47
2023-05-10T05:06:19.841Z,40.53
2023-05-10T05:07:19.865Z,40.49
2023-05-10T05:08:19.844Z,40.54
2023-05-10T05:09:19.875Z,40.55
2023-05-10T05:10:20.122Z,40.60
2023-05-10T05:11:19.866Z,40.57
2023-05-10T05:12:19.870Z,40.57
2023-05-10T05:13:19.927Z,40.55
2023-05-10T05:14:19.870Z,40.58
2023-05-10T05:15:19.880Z,40.59
2023-05-10T05:16:19.886Z,40.58
2023-05-10T05:17:19.870Z,40.52
2023-05-10T05:18:19.898Z,40.55
2023-05-10T05:19:19.905Z,40.54
2023-05-10T05:20:20.007Z,40.59
2023-05-10T05:21:19.960Z,40.52
2023-05-10T05:22:19.909Z,40.60
2023-05-10T05:23:19.924Z,40.61
2023-05-10T05:24:19.933Z,40.63
2023-05-10T05:25:19.934Z,40.65
2023-05-10T05:26:19.955Z,40.70
2023-05-10T05:27:19.956Z,40.65
2023-05-10T05:28:19.974Z,40.68
2023-05-10T05:29:19.977Z,40.75
2023-05-10T05:30:20.011Z,40.73
2023-05-10T05:31:20.081Z,40.78
2023-05-10T05:32:20.020Z,41.43
2023-05-10T05:33:20.029Z,41.81
2023-05-10T05:34:20.155Z,41.82
2023-05-10T05:35:20.055Z,41.85
2023-05-10T05:36:20.042Z,41.48
2023-05-10T05:37:20.044Z,41.71
2023-05-10T05:38:20.073Z,41.91
2023-05-10T05:39:20.044Z,42.38
2023-05-10T05:40:20.036Z,42.23
2023-05-10T05:41:20.074Z,42.29
2023-05-10T05:42:20.083Z,42.25
2023-05-10T05:43:20.165Z,42.13
2023-05-10T05:44:20.236Z,41.93
2023-05-10T05:45:20.426Z,41.92
2023-05-10T05:46:20.353Z,42.01
2023-05-10T05:47:20.400Z,41.93
2023-05-10T05:48:20.447Z,41.87
2023-05-10T05:49:20.686Z,41.97
2023-05-10T05:50:20.529Z,41.62
2023-05-10T05:51:20.584Z,42.14
2023-05-10T05:52:20.619Z,42.24
2023-05-10T05:53:20.681Z,42.18
2023-05-10T05:54:21.141Z,42.12
2023-05-10T05:55:20.758Z,42.17
2023-05-10T05:56:20.789Z,42.08
2023-05-10T05:57:20.814Z,42.10
2023-05-10T05:58:20.870Z,42.31
2023-05-10T05:59:20.893Z,41.34
2023-05-10T06:00:20.936Z,41.68
2023-05-10T06:01:21.014Z,41.90
2023-05-10T06:02:21.096Z,42.15
2023-05-10T06:03:21.220Z,42.43
2023-05-10T06:04:21.137Z,42.82
2023-05-10T06:05:21.080Z,43.07
2023-05-10T06:06:21.104Z,43.31
2023-05-10T06:07:21.117Z,43.54
2023-05-10T06:08:21.149Z,43.60
2023-05-10T06:09:21.162Z,43.61
2023-05-10T06:10:21.192Z,43.65
2023-05-10T06:11:21.221Z,43.64
2023-05-10T06:12:21.260Z,43.49
2023-05-10T06:13:21.280Z,43.76
2023-05-10T06:14:21.277Z,43.35
2023-05-10T06:15:21.678Z,43.31
2023-05-10T06:16:21.327Z,43.05
2023-05-10T06:17:21.291Z,43.04
2023-05-10T06:18:21.300Z,43.17
2023-05-10T06:19:21.670Z,42.99
2023-05-10T06:20:21.669Z,43.06
2023-05-10T06:21:21.492Z,42.90
2023-05-10T06:22:21.551Z,43.10
2023-05-10T06:23:21.624Z,43.13
2023-05-10T06:24:21.660Z,43.29
2023-05-10T06:25:21.709Z,43.31
2023-05-10T06:26:21.742Z,43.20
2023-05-10T06:27:21.785Z,43.34
2023-05-10T06:28:21.806Z,42.98
2023-05-10T06:29:21.848Z,43.11
2023-05-10T06:30:22.199Z,43.08
2023-05-10T06:31:21.934Z,43.03
2023-05-10T06:32:21.957Z,42.90
2023-05-10T06:33:22.020Z,43.06
2023-05-10T06:34:22.183Z,43.08
2023-05-10T06:35:22.042Z,43.00
2023-05-10T06:36:22.072Z,43.05
2023-05-10T06:37:22.063Z,42.75
2023-05-10T06:38:22.095Z,42.89
2023-05-10T06:39:22.131Z,43.18
2023-05-10T06:40:22.132Z,43.08
2023-05-10T06:41:24.604Z,43.03
2023-05-10T06:42:22.367Z,43.01
2023-05-10T06:43:22.412Z,42.96
2023-05-10T06:44:22.415Z,42.70
2023-05-10T06:45:22.424Z,42.62
2023-05-10T06:46:22.431Z,42.54
2023-05-10T06:47:22.412Z,42.22
2023-05-10T06:48:22.567Z,42.31
2023-05-10T06:49:22.415Z,42.31
2023-05-10T06:50:22.428Z,42.37
2023-05-10T06:51:22.424Z,42.32
2023-05-10T06:52:22.419Z,42.20
2023-05-10T06:53:22.404Z,42.27
2023-05-10T06:54:22.400Z,42.36
2023-05-10T06:55:22.410Z,42.11
2023-05-10T06:56:22.446Z,42.04
2023-05-10T06:57:31.224Z,42.04
2023-05-10T06:58:23.411Z,42.27
2023-05-10T06:59:23.236Z,42.22
2023-05-10T07:00:22.393Z,41.72
2023-05-10T07:01:22.443Z,42.20
2023-05-10T07:02:22.418Z,42.35
2023-05-10T07:03:22.466Z,42.40
2023-05-10T07:04:22.406Z,42.34
2023-05-10T07:05:22.429Z,42.26
2023-05-10T07:06:32.774Z,42.13
2023-05-10T07:07:23.327Z,42.32
2023-05-10T07:08:22.341Z,42.02
2023-05-10T07:09:22.329Z,42.12
2023-05-10T07:10:22.334Z,42.20
2023-05-10T07:11:22.362Z,42.29
2023-05-10T07:12:22.338Z,42.44
2023-05-10T07:13:22.349Z,42.19
2023-05-10T07:14:22.294Z,42.52
2023-05-10T07:15:22.289Z,42.59
2023-05-10T07:16:22.338Z,42.73
2023-05-10T07:17:22.331Z,42.83
2023-05-10T07:18:22.376Z,42.73
2023-05-10T07:19:22.357Z,42.70
2023-05-10T07:20:22.421Z,42.70
2023-05-10T07:21:22.500Z,42.79
2023-05-10T07:22:22.534Z,42.70
2023-05-10T07:23:22.594Z,42.77
2023-05-10T07:24:22.662Z,42.51
2023-05-10T07:25:22.727Z,42.71
2023-05-10T07:26:22.793Z,42.60
2023-05-10T07:27:22.834Z,42.64
2023-05-10T07:28:22.871Z,42.53
2023-05-10T07:29:22.936Z,42.51
2023-05-10T07:30:22.969Z,42.71
2023-05-10T07:31:22.917Z,42.44
2023-05-10T07:32:23.274Z,42.43
2023-05-10T07:33:23.004Z,42.40
2023-05-10T07:34:22.972Z,42.34
2023-05-10T07:35:23.013Z,42.30
2023-05-10T07:36:23.046Z,42.27
2023-05-10T07:37:23.065Z,41.78
2023-05-10T07:38:23.105Z,42.46
2023-05-10T07:39:27.476Z,42.30
2023-05-10T07:40:24.150Z,41.65
2023-05-10T07:41:23.145Z,42.14
2023-05-10T07:42:23.145Z,42.15
2023-05-10T07:43:23.229Z,41.90
2023-05-10T07:44:23.124Z,42.33
2023-05-10T07:45:23.137Z,42.31
2023-05-10T07:46:23.214Z,42.43
2023-05-10T07:47:23.122Z,42.21
2023-05-10T07:48:23.100Z,42.36
2023-05-10T07:49:23.192Z,42.49
2023-05-10T07:50:23.203Z,42.35
2023-05-10T07:51:23.097Z,42.16
2023-05-10T07:52:23.097Z,42.20
2023-05-10T07:53:23.067Z,42.26
2023-05-10T07:54:23.057Z,42.14
2023-05-10T07:55:23.207Z,42.28
2023-05-10T07:56:23.041Z,42.03
2023-05-10T07:57:23.016Z,41.92
2023-05-10T07:58:23.028Z,41.70
2023-05-10T07:59:23.011Z,41.54
2023-05-10T08:00:23.197Z,41.42
2023-05-10T08:01:23.012Z,41.41
2023-05-10T08:02:23.066Z,41.15
2023-05-10T08:03:23.012Z,41.10
2023-05-10T08:04:23.017Z,41.08
2023-05-10T08:05:23.005Z,41.09
2023-05-10T08:06:22.969Z,41.10
2023-05-10T08:07:22.956Z,41.07
2023-05-10T08:08:22.998Z,41.01
2023-05-10T08:09:22.981Z,40.98
2023-05-10T08:10:22.957Z,40.96
2023-05-10T08:11:22.938Z,40.96
2023-05-10T08:12:22.941Z,40.97
2023-05-10T08:13:22.951Z,40.95
2023-05-10T08:14:22.930Z,40.96
2023-05-10T08:15:23.235Z,40.93
2023-05-10T08:16:23.013Z,40.92
2023-05-10T08:17:24.825Z,40.95
2023-05-10T08:18:23.055Z,40.96
2023-05-10T08:19:22.947Z,40.95
2023-05-10T08:20:23.227Z,40.95
2023-05-10T08:21:22.996Z,40.95
2023-05-10T08:22:22.979Z,40.94
2023-05-10T08:23:22.991Z,41.01
2023-05-10T08:24:23.035Z,41.09
2023-05-10T08:25:23.014Z,41.14
2023-05-10T08:26:23.054Z,41.22
2023-05-10T08:27:23.056Z,41.15
2023-05-10T08:28:23.087Z,41.23
2023-05-10T08:29:23.112Z,41.20
2023-05-10T08:30:23.134Z,41.20
2023-05-10T08:31:23.150Z,41.19
2023-05-10T08:32:23.150Z,41.19
2023-05-10T08:33:23.186Z,41.20
2023-05-10T08:34:23.417Z,41.19
2023-05-10T08:35:23.213Z,41.26
2023-05-10T08:36:23.253Z,41.23
2023-05-10T08:37:23.262Z,41.34
2023-05-10T08:38:23.315Z,41.53
2023-05-10T08:39:29.780Z,41.50
2023-05-10T08:40:24.315Z,41.54
2023-05-10T08:41:23.366Z,41.53
2023-05-10T08:42:23.264Z,41.62
2023-05-10T08:43:23.280Z,41.63
2023-05-10T08:44:23.279Z,41.59
2023-05-10T08:45:23.759Z,41.64
2023-05-10T08:46:24.229Z,41.77
2023-05-10T08:47:23.296Z,41.72
2023-05-10T08:48:23.253Z,41.78
2023-05-10T08:49:23.255Z,41.78
2023-05-10T08:50:23.240Z,41.78
2023-05-10T08:51:23.230Z,41.77
2023-05-10T08:52:23.224Z,42.00
2023-05-10T08:53:23.228Z,41.87
2023-05-10T08:54:23.237Z,41.89
2023-05-10T08:55:23.232Z,41.82
2023-05-10T08:56:23.218Z,41.99
2023-05-10T08:57:23.185Z,41.93
2023-05-10T08:58:23.220Z,41.82
2023-05-10T08:59:23.186Z,41.89
2023-05-10T09:00:23.181Z,41.80
2023-05-10T09:01:23.319Z,41.91
2023-05-10T09:02:23.174Z,41.92
2023-05-10T09:03:23.239Z,41.94
2023-05-10T09:04:23.198Z,42.06
2023-05-10T09:05:23.184Z,41.91
2023-05-10T09:06:23.140Z,41.86
2023-05-10T09:07:23.137Z,41.98
2023-05-10T09:08:23.128Z,42.01
2023-05-10T09:09:23.110Z,42.07
2023-05-10T09:10:23.228Z,41.98
2023-05-10T09:11:23.103Z,41.96
2023-05-10T09:12:23.118Z,42.15
2023-05-10T09:13:23.103Z,42.12
2023-05-10T09:14:23.082Z,41.99
2023-05-10T09:15:23.248Z,41.99
2023-05-10T09:16:23.176Z,41.96
2023-05-10T09:17:23.147Z,42.06
2023-05-10T09:18:23.101Z,41.87
2023-05-10T09:19:23.083Z,41.99
2023-05-10T09:20:23.240Z,42.00
2023-05-10T09:21:23.143Z,42.03
2023-05-10T09:22:23.201Z,41.97
2023-05-10T09:23:23.221Z,41.94
2023-05-10T09:24:23.254Z,41.87
2023-05-10T09:25:23.754Z,41.98
2023-05-10T09:26:23.352Z,42.05
2023-05-10T09:27:23.323Z,42.02
2023-05-10T09:28:23.332Z,41.60
2023-05-10T09:29:23.286Z,41.43
2023-05-10T09:30:23.740Z,41.31
2023-05-10T09:31:23.567Z,41.43
2023-05-10T09:32:23.344Z,41.52
2023-05-10T09:33:23.296Z,41.55
2023-05-10T09:34:23.301Z,41.45
2023-05-10T09:35:23.293Z,41.69
2023-05-10T09:36:23.735Z,41.41
2023-05-10T09:37:23.316Z,41.68
2023-05-10T09:38:23.316Z,41.65
2023-05-10T09:39:23.316Z,41.25
2023-05-10T09:40:23.339Z,41.20
2023-05-10T09:41:23.337Z,41.09
2023-05-10T09:42:23.315Z,40.96
2023-05-10T09:43:23.344Z,40.96
2023-05-10T09:44:23.347Z,41.16
2023-05-10T09:45:23.758Z,41.03
2023-05-10T09:46:23.396Z,41.04
2023-05-10T09:47:23.436Z,41.17
2023-05-10T09:48:23.373Z,41.53
2023-05-10T09:49:23.357Z,41.64
2023-05-10T09:50:23.759Z,41.63
2023-05-10T09:51:23.362Z,41.69
2023-05-10T09:52:23.365Z,41.46
2023-05-10T09:53:23.357Z,41.08
2023-05-10T09:54:23.358Z,41.70
2023-05-10T09:55:23.391Z,41.67
2023-05-10T09:56:23.367Z,41.61
2023-05-10T09:57:23.343Z,41.34
2023-05-10T09:58:23.367Z,41.88
2023-05-10T09:59:23.348Z,40.92
2023-05-10T10:00:23.357Z,41.63
2023-05-10T10:01:23.412Z,41.36
2023-05-10T10:02:23.380Z,41.59
2023-05-10T10:03:23.376Z,41.63
2023-05-10T10:04:23.354Z,41.68
2023-05-10T10:05:23.333Z,41.68
2023-05-10T10:06:30.027Z,41.74
2023-05-10T10:07:24.349Z,41.59
2023-05-10T10:08:23.331Z,41.35
2023-05-10T10:09:23.312Z,40.84
2023-05-10T10:10:23.311Z,40.92
2023-05-10T10:11:23.310Z,41.21
2023-05-10T10:12:23.296Z,41.70
2023-05-10T10:13:23.293Z,41.96
2023-05-10T10:14:23.287Z,42.36
2023-05-10T10:15:23.514Z,42.57
2023-05-10T10:16:23.857Z,42.72
2023-05-10T10:17:23.314Z,43.01
2023-05-10T10:18:23.251Z,43.20
2023-05-10T10:19:23.244Z,43.27
2023-05-10T10:20:23.244Z,43.48
2023-05-10T10:21:23.281Z,43.47
2023-05-10T10:22:23.232Z,43.22
2023-05-10T10:23:23.273Z,43.19
2023-05-10T10:24:23.294Z,42.83
2023-05-10T10:25:23.388Z,41.80
2023-05-10T10:26:23.773Z,42.11
2023-05-10T10:27:23.490Z,41.70
2023-05-10T10:28:24.018Z,42.08
2023-05-10T10:29:23.558Z,42.23
2023-05-10T10:30:23.531Z,41.92
2023-05-10T10:31:23.617Z,41.98
2023-05-10T10:32:23.548Z,41.84
2023-05-10T10:33:28.479Z,41.90
2023-05-10T10:34:24.511Z,41.83
2023-05-10T10:35:23.521Z,41.80
2023-05-10T10:36:23.797Z,41.58
2023-05-10T10:37:23.503Z,41.56
2023-05-10T10:38:23.494Z,41.51
2023-05-10T10:39:23.489Z,41.57
2023-05-10T10:40:23.479Z,41.56
2023-05-10T10:41:23.474Z,41.54
2023-05-10T10:42:23.464Z,41.63
2023-05-10T10:43:23.447Z,41.60
2023-05-10T10:44:23.506Z,41.62
2023-05-10T10:45:23.435Z,41.70
2023-05-10T10:46:23.474Z,41.76
2023-05-10T10:47:23.466Z,41.92
2023-05-10T10:48:23.412Z,41.97
2023-05-10T10:49:23.443Z,42.05
2023-05-10T10:50:23.410Z,42.09
2023-05-10T10:51:23.424Z,42.10
2023-05-10T10:52:23.399Z,42.19
2023-05-10T10:53:23.447Z,42.12
2023-05-10T10:54:23.390Z,42.11
2023-05-10T10:55:23.396Z,42.02
2023-05-10T10:56:23.428Z,42.00
2023-05-10T10:57:23.427Z,42.05
2023-05-10T10:58:23.441Z,42.09
2023-05-10T10:59:23.431Z,42.15
2023-05-10T11:00:23.446Z,42.14
2023-05-10T11:01:23.517Z,42.06
2023-05-10T11:02:23.525Z,42.12
2023-05-10T11:03:23.486Z,42.13
2023-05-10T11:04:23.549Z,42.23
2023-05-10T11:05:23.505Z,42.26
2023-05-10T11:06:23.788Z,42.36
2023-05-10T11:07:23.524Z,42.52
2023-05-10T11:08:23.543Z,42.48
2023-05-10T11:09:23.555Z,42.47
2023-05-10T11:10:23.575Z,42.44
2023-05-10T11:11:23.596Z,42.46
2023-05-10T11:12:23.661Z,42.71
2023-05-10T11:13:23.633Z,43.11
2023-05-10T11:14:23.693Z,43.17
2023-05-10T11:15:23.695Z,43.28
2023-05-10T11:16:23.734Z,43.26
2023-05-10T11:17:23.857Z,43.16
2023-05-10T11:18:23.776Z,43.05
2023-05-10T11:19:23.798Z,42.99
2023-05-10T11:20:23.825Z,43.13
2023-05-10T11:21:23.855Z,43.00
2023-05-10T11:22:23.891Z,43.09
2023-05-10T11:23:23.909Z,43.42
2023-05-10T11:24:23.915Z,43.41
2023-05-10T11:25:23.935Z,43.41
2023-05-10T11:26:23.963Z,43.31
2023-05-10T11:27:23.948Z,43.20
2023-05-10T11:28:23.976Z,42.76
2023-05-10T11:29:23.980Z,42.52
2023-05-10T11:30:23.972Z,42.64
2023-05-10T11:31:24.054Z,42.70
2023-05-10T11:32:24.117Z,42.49
2023-05-10T11:33:24.082Z,42.56
2023-05-10T11:34:24.066Z,42.88
2023-05-10T11:35:24.118Z,43.03
2023-05-10T11:36:24.203Z,43.52
2023-05-10T11:37:24.233Z,43.62
2023-05-10T11:38:24.288Z,43.91
2023-05-10T11:39:24.330Z,44.06
2023-05-10T11:40:24.393Z,43.92
2023-05-10T11:41:24.460Z,43.84
2023-05-10T11:42:24.488Z,43.64
2023-05-10T11:43:24.556Z,43.43
2023-05-10T11:44:24.586Z,43.34
2023-05-10T11:45:24.645Z,43.21
2023-05-10T11:46:24.676Z,43.14
2023-05-10T11:47:24.679Z,42.95
2023-05-10T11:48:24.729Z,42.81
2023-05-10T11:49:24.720Z,42.61
2023-05-10T11:50:24.768Z,42.43
2023-05-10T11:51:24.780Z,42.38
2023-05-10T11:52:24.785Z,42.30
2023-05-10T11:53:25.935Z,42.26
2023-05-10T11:54:24.831Z,42.33
2023-05-10T11:55:24.829Z,42.40
2023-05-10T11:56:24.885Z,42.32
2023-05-10T11:57:24.848Z,42.20
2023-05-10T11:58:24.857Z,42.12
2023-05-10T11:59:24.850Z,42.03
2023-05-10T12:00:24.852Z,41.92
2023-05-10T12:01:24.844Z,41.81
2023-05-10T12:02:24.921Z,41.73
2023-05-10T12:03:24.942Z,41.62
2023-05-10T12:04:24.892Z,41.46
2023-05-10T12:05:24.865Z,41.36
2023-05-10T12:06:25.313Z,41.35
2023-05-10T12:07:24.896Z,41.24
2023-05-10T12:08:24.919Z,41.19
2023-05-10T12:09:39.448Z,41.12
2023-05-10T12:10:25.930Z,41.08
2023-05-10T12:11:25.311Z,40.97
2023-05-10T12:12:24.910Z,41.01
2023-05-10T12:13:24.912Z,40.97
2023-05-10T12:14:24.954Z,40.94
2023-05-10T12:15:24.880Z,40.91
2023-05-10T12:16:25.361Z,40.90
2023-05-10T12:17:24.882Z,40.87
2023-05-10T12:18:24.910Z,40.83
2023-05-10T12:19:24.931Z,40.87
2023-05-10T12:20:24.972Z,40.84
2023-05-10T12:21:25.037Z,40.83
2023-05-10T12:22:25.108Z,40.80
2023-05-10T12:23:25.144Z,40.78
2023-05-10T12:24:25.206Z,40.82
2023-05-10T12:25:25.273Z,40.80
2023-05-10T12:26:25.336Z,40.78
2023-05-10T12:27:25.405Z,40.81
2023-05-10T12:28:25.465Z,40.78
2023-05-10T12:29:25.531Z,40.78
2023-05-10T12:30:25.600Z,40.77
2023-05-10T12:31:25.778Z,40.76
2023-05-10T12:32:25.759Z,40.76
2023-05-10T12:33:25.793Z,40.78
2023-05-10T12:34:25.828Z,40.79
2023-05-10T12:35:25.892Z,40.75
2023-05-10T12:36:25.963Z,40.76
2023-05-10T12:37:26.017Z,40.73
2023-05-10T12:38:26.108Z,40.71
2023-05-10T12:39:26.143Z,40.70
2023-05-10T12:40:26.194Z,40.69
2023-05-10T12:41:26.311Z,40.70
2023-05-10T12:42:26.334Z,40.64
2023-05-10T12:43:26.405Z,40.66
2023-05-10T12:44:26.459Z,40.66
2023-05-10T12:45:26.516Z,40.68
2023-05-10T12:46:26.683Z,40.65
2023-05-10T12:47:26.718Z,40.64
2023-05-10T12:48:26.693Z,40.65
2023-05-10T12:49:26.731Z,40.66
2023-05-10T12:50:26.816Z,40.70
2023-05-10T12:51:26.865Z,40.68
2023-05-10T12:52:26.925Z,40.67
2023-05-10T12:53:27.017Z,40.65